Time;durP1;ratioP1;P1;durP2;ratioP2;P2;SDS_P1;SDS_P2;PMS_P1;PMS_P2;Temp;Humidity;BMP_temperature;BMP_pressure;BME280_temperature;BME280_humidity;BME280_pressure;Samples;Min_cycle;Max_cycle;Signal;HPM_P1;HPM_P2
2021/01/07 00:00:50;;;;;;;9.20;8.40;;;;;;;-0.41;92.38;100075.69;5060656;28;20233;-80
2021/01/07 00:03:15;;;;;;;8.63;7.73;;;;;;;-0.39;92.28;100073.16;5076295;28;20230;-80
2021/01/07 00:05:42;;;;;;;8.80;8.00;;;;;;;-0.38;92.48;100070.59;5058397;28;20235;-80
2021/01/07 00:08:09;;;;;;;8.60;7.80;;;;;;;-0.34;92.41;100072.41;5076218;28;20210;-80
2021/01/07 00:10:35;;;;;;;8.87;7.97;;;;;;;-0.41;92.28;100068.88;5053552;28;20768;-80
2021/01/07 00:13:01;;;;;;;7.90;7.20;;;;;;;-0.33;92.63;100068.16;5064129;28;20204;-81
2021/01/07 00:15:27;;;;;;;8.60;7.70;;;;;;;-0.24;92.45;100065.75;5058503;28;20276;-81
2021/01/07 00:17:53;;;;;;;7.93;7.23;;;;;;;-0.33;92.33;100068.16;5076110;28;20208;-79
2021/01/07 00:20:19;;;;;;;8.57;7.77;;;;;;;-0.35;92.63;100068.13;5066173;28;20762;-80
2021/01/07 00:22:45;;;;;;;8.20;7.50;;;;;;;-0.30;92.09;100069.06;5075478;28;20307;-80
2021/01/07 00:25:11;;;;;;;9.10;8.30;;;;;;;-0.32;92.41;100070.72;5063450;28;20213;-79
2021/01/07 00:27:37;;;;;;;9.60;8.70;;;;;;;-0.23;92.37;100059.78;5070396;28;20203;-81
2021/01/07 00:30:06;;;;;;;9.93;9.13;;;;;;;-0.17;92.29;100059.06;5059148;28;20219;-79
2021/01/07 00:32:32;;;;;;;10.20;9.30;;;;;;;-0.22;92.43;100057.25;5069545;28;20578;-81
2021/01/07 00:34:58;;;;;;;11.37;10.33;;;;;;;-0.17;92.64;100054.78;5064808;28;20208;-80
2021/01/07 00:37:23;;;;;;;11.17;10.17;;;;;;;-0.18;92.36;100058.16;5047610;28;20663;-80
2021/01/07 00:39:49;;;;;;;12.00;10.90;;;;;;;-0.23;92.20;100059.78;5055181;28;20315;-81
2021/01/07 00:42:17;;;;;;;13.33;10.53;;;;;;;-0.17;nan;100056.47;5066269;28;20269;-80
2021/01/07 00:44:43;;;;;;;10.33;9.33;;;;;;;-0.17;92.32;100059.91;5059884;28;20218;-80
2021/01/07 00:47:09;;;;;;;11.23;10.23;;;;;;;-0.11;92.47;100062.56;5073131;28;20204;-80
2021/01/07 00:49:35;;;;;;;9.63;8.83;;;;;;;-0.09;92.38;100066.03;5059455;28;20262;-80
2021/01/07 00:52:01;;;;;;;9.53;8.73;;;;;;;-0.07;92.22;100059.22;5054779;28;20222;-80
2021/01/07 00:54:29;;;;;;;7.73;7.07;;;;;;;-0.14;91.85;100053.97;5054634;28;20892;-81
2021/01/07 00:56:54;;;;;;;9.03;8.23;;;;;;;-0.14;91.93;100057.41;5064094;28;20205;-81
2021/01/07 00:59:21;;;;;;;9.37;8.57;;;;;;;-0.14;92.31;100059.97;5069356;28;20227;-80
2021/01/07 01:01:48;;;;;;;8.43;7.70;;;;;;;-0.26;92.70;100055.47;5062284;28;20204;-81
2021/01/07 01:04:15;;;;;;;8.20;7.40;;;;;;;-0.26;92.48;100046.91;5067571;28;20218;-81
2021/01/07 01:06:42;;;;;;;8.60;7.80;;;;;;;-0.16;92.24;100059.06;5065066;28;20205;-80
2021/01/07 01:09:09;;;;;;;8.50;7.70;;;;;;;-0.20;92.42;100052.13;5070895;28;20224;-81
2021/01/07 01:11:39;;;;;;;7.33;6.73;;;;;;;-0.18;92.03;100055.59;5066167;28;20196;-80
2021/01/07 01:14:05;;;;;;;7.70;7.03;;;;;;;-0.21;92.20;100053.00;5070092;28;20212;-79
2021/01/07 01:16:32;;;;;;;8.23;7.53;;;;;;;-0.26;92.32;100055.47;5062448;28;20220;-80
2021/01/07 01:18:58;;;;;;;7.80;7.10;;;;;;;-0.28;92.18;100059.72;5071824;28;20219;-80
2021/01/07 01:21:24;;;;;;;7.97;7.20;;;;;;;-0.26;92.18;100054.59;5054654;28;20556;-80
2021/01/07 01:23:49;;;;;;;7.47;6.77;;;;;;;-0.28;92.82;100048.56;5054173;28;20227;-80
2021/01/07 01:26:16;;;;;;;8.47;7.40;;;;;;;-0.34;92.81;100053.59;5065481;28;20293;-80
2021/01/07 01:28:42;;;;;;;7.47;6.87;;;;;;;-0.38;92.49;100050.09;5063514;28;20212;-81
2021/01/07 01:31:08;;;;;;;7.10;6.50;;;;;;;-0.34;92.70;100053.59;5056364;28;20200;-80
2021/01/07 01:33:34;;;;;;;7.73;7.07;;;;;;;-0.39;92.64;100057.78;5074544;28;20243;-80
2021/01/07 01:36:00;;;;;;;7.53;6.90;;;;;;;-0.35;92.93;100047.59;5054590;28;20281;-81
2021/01/07 01:38:26;;;;;;;6.77;6.17;;;;;;;-0.33;92.92;100050.19;5067191;28;20681;-80
2021/01/07 01:40:52;;;;;;;7.20;6.60;;;;;;;-0.35;93.13;100054.44;5057047;28;20289;-81
2021/01/07 01:43:18;;;;;;;6.70;6.10;;;;;;;-0.36;92.97;100050.13;5074731;28;20311;-81
2021/01/07 01:45:44;;;;;;;6.77;6.17;;;;;;;-0.39;92.80;100042.41;5056742;28;20222;-80
2021/01/07 01:48:11;;;;;;;7.73;7.03;;;;;;;-0.42;92.89;100040.63;5074212;28;20262;-81
2021/01/07 01:50:38;;;;;;;6.97;6.37;;;;;;;-0.38;92.56;100049.25;5057930;28;20228;-81
2021/01/07 01:53:04;;;;;;;5.87;5.27;;;;;;;-0.42;93.20;100046.63;5054212;28;20684;-80
2021/01/07 01:55:30;;;;;;;7.80;7.10;;;;;;;-0.32;92.58;100050.22;5052500;28;20695;-80
2021/01/07 01:57:59;;;;;;;6.47;5.87;;;;;;;-0.33;92.65;100040.81;5082006;28;20204;-80
2021/01/07 02:00:25;;;;;;;7.73;6.87;;;;;;;-0.33;92.64;100047.63;5067367;28;20282;-80
2021/01/07 02:02:50;;;;;;;6.63;6.03;;;;;;;-0.30;92.65;100043.41;5074610;28;20223;-80
2021/01/07 02:05:16;;;;;;;7.37;6.77;;;;;;;-0.15;92.18;100045.41;5068213;28;20215;-81
2021/01/07 02:07:45;;;;;;;7.10;6.50;;;;;;;-0.19;92.37;100050.47;5075173;28;20206;-81
2021/01/07 02:10:12;;;;;;;8.33;7.60;;;;;;;-0.18;92.04;100047.03;5081438;28;20240;-81
2021/01/07 02:12:44;;;;;;;7.93;7.20;;;;;;;-0.24;92.39;100047.78;5082811;28;20204;-81
2021/01/07 02:15:12;;;;;;;8.73;8.03;;;;;;;-0.30;92.52;100043.41;5071638;28;20295;-81
2021/01/07 02:17:38;;;;;;;8.70;7.83;;;;;;;-0.22;92.20;100046.13;5076928;28;20207;-81
2021/01/07 02:20:05;;;;;;;7.67;6.97;;;;;;;-0.13;92.99;100046.28;5071098;28;20668;-81
2021/01/07 02:22:31;;;;;;;7.37;6.73;;;;;;;-0.04;92.27;100049.03;5062263;28;20258;-81
2021/01/07 02:24:57;;;;;;;7.50;6.73;;;;;;;-0.03;92.14;100047.31;5061422;28;20729;-81
2021/01/07 02:27:23;;;;;;;6.70;6.10;;;;;;;-0.01;92.09;100050.78;5074848;28;20203;-80
2021/01/07 02:29:49;;;;;;;6.63;6.03;;;;;;;-0.10;92.14;100051.50;5081662;28;20239;-81
2021/01/07 02:32:15;;;;;;;6.87;6.27;;;;;;;-0.12;92.05;100042.91;5082629;28;20662;-82
2021/01/07 02:34:41;;;;;;;6.40;5.80;;;;;;;-0.08;92.23;100043.81;5074478;28;20203;-80
2021/01/07 02:37:07;;;;;;;6.80;6.17;;;;;;;-0.12;92.27;100042.91;5055717;28;20303;-81
2021/01/07 02:39:33;;;;;;;7.17;6.47;;;;;;;-0.19;92.18;100035.94;5070202;28;20253;-82
2021/01/07 02:41:59;;;;;;;6.53;5.93;;;;;;;-0.15;92.06;100039.41;5078585;28;20216;-82
2021/01/07 02:44:25;;;;;;;6.70;6.10;;;;;;;-0.16;91.77;100038.53;5082041;28;20227;-80
2021/01/07 02:46:52;;;;;;;7.33;6.63;;;;;;;-0.07;91.95;100040.41;5082816;28;20203;-80
2021/01/07 02:49:19;;;;;;;6.90;6.30;;;;;;;-0.17;91.73;100031.69;5065487;28;20232;-81
2021/01/07 02:51:44;;;;;;;7.77;7.07;;;;;;;-0.09;91.73;100035.25;5062617;28;20262;-80
2021/01/07 02:54:11;;;;;;;6.37;5.77;;;;;;;-0.18;91.66;100034.22;5063339;28;20264;-81
2021/01/07 02:56:37;;;;;;;7.10;6.40;;;;;;;-0.17;91.64;100034.25;5068790;28;20255;-80
2021/01/07 02:59:03;;;;;;;7.67;6.97;;;;;;;-0.08;91.74;100036.09;5080027;28;20250;-81
2021/01/07 03:01:29;;;;;;;7.00;6.40;;;;;;;-0.14;91.68;100026.63;5076005;28;20192;-81
2021/01/07 03:03:55;;;;;;;6.57;5.97;;;;;;;-0.11;91.72;100030.94;5080812;28;20302;-80
2021/01/07 03:06:21;;;;;;;6.80;6.20;;;;;;;-0.16;92.04;100030.84;5065978;28;20196;-80
2021/01/07 03:08:47;;;;;;;5.93;5.43;;;;;;;-0.17;91.71;100030.84;5082167;28;20199;-81
2021/01/07 03:11:14;;;;;;;6.53;5.93;;;;;;;-0.20;91.93;100034.19;5054884;28;20238;-81
2021/01/07 03:13:39;;;;;;;6.53;5.93;;;;;;;-0.10;91.47;100027.53;5078017;28;20195;-81
2021/01/07 03:16:05;;;;;;;7.07;6.47;;;;;;;-0.12;91.04;100031.75;5064904;28;20292;-81
2021/01/07 03:18:31;;;;;;;7.50;6.70;;;;;;;-0.15;90.97;100030.00;5082994;28;20295;-80
2021/01/07 03:20:57;;;;;;;7.00;6.30;;;;;;;-0.13;91.28;100032.63;5053353;28;20571;-81
2021/01/07 03:23:23;;;;;;;8.23;7.03;;;;;;;-0.17;91.03;100025.69;5081059;28;20290;-79
2021/01/07 03:25:49;;;;;;;7.20;6.50;;;;;;;-0.26;90.76;100024.72;5080042;28;20211;-79
2021/01/07 03:28:16;;;;;;;7.73;7.00;;;;;;;-0.19;90.79;100030.81;5081715;28;20464;-80
2021/01/07 03:30:41;;;;;;;7.13;6.43;;;;;;;-0.16;90.90;100025.69;5065228;28;20228;-80
2021/01/07 03:33:07;;;;;;;7.17;6.47;;;;;;;-0.12;90.70;100029.19;5073570;28;20235;-80
2021/01/07 03:35:33;;;;;;;7.10;6.40;;;;;;;-0.16;90.64;100024.84;5070248;28;20220;-80
2021/01/07 03:37:59;;;;;;;6.27;5.67;;;;;;;-0.19;90.70;100030.81;5074230;28;20199;-79
2021/01/07 03:40:25;;;;;;;6.87;6.27;;;;;;;-0.25;90.58;100017.88;5085054;28;20282;-79
2021/01/07 03:42:51;;;;;;;6.50;5.90;;;;;;;-0.24;91.06;100023.03;5085554;28;20196;-80
2021/01/07 03:45:18;;;;;;;7.20;6.50;;;;;;;-0.29;90.83;100027.19;5071774;28;20275;-79
2021/01/07 03:47:44;;;;;;;7.17;6.47;;;;;;;-0.30;90.48;100019.47;5075216;28;20208;-80
2021/01/07 03:50:11;;;;;;;6.60;5.97;;;;;;;-0.31;91.11;100020.31;5066752;28;20733;-80
2021/01/07 03:52:37;;;;;;;6.50;5.87;;;;;;;-0.29;91.34;100024.63;5085116;28;20234;-80
2021/01/07 03:55:04;;;;;;;7.37;6.57;;;;;;;-0.24;91.23;100022.16;5072875;28;20594;-80
2021/01/07 03:57:30;;;;;;;5.57;5.07;;;;;;;-0.23;91.03;100019.63;5078594;28;20207;-79
2021/01/07 03:59:55;;;;;;;7.03;6.43;;;;;;;-0.31;90.81;100016.06;5082885;28;20228;-80
2021/01/07 04:02:22;;;;;;;6.37;5.80;;;;;;;-0.35;91.23;100019.41;5084717;28;20197;-80
2021/01/07 04:04:48;;;;;;;6.30;5.63;;;;;;;-0.40;91.32;100015.88;5075585;28;20236;-79
2021/01/07 04:07:14;;;;;;;7.40;6.70;;;;;;;-0.30;91.02;100014.34;5083026;28;20224;-81
2021/01/07 04:09:40;;;;;;;7.03;6.43;;;;;;;-0.36;91.31;100012.53;5080683;28;20255;-80
2021/01/07 04:12:06;;;;;;;6.97;6.37;;;;;;;-0.39;91.06;100012.50;5075262;28;20200;-80
2021/01/07 04:14:32;;;;;;;7.77;6.57;;;;;;;-0.30;91.18;100010.06;5080955;28;20199;-80
2021/01/07 04:16:59;;;;;;;6.43;5.83;;;;;;;-0.35;91.30;100009.16;5084413;28;20242;-79
2021/01/07 04:19:25;;;;;;;7.60;6.90;;;;;;;-0.36;91.69;100003.97;5077652;28;20225;-79
2021/01/07 04:21:51;;;;;;;8.03;7.27;;;;;;;-0.38;91.27;100010.78;5080088;28;20198;-80
2021/01/07 04:24:17;;;;;;;7.20;6.43;;;;;;;-0.43;91.39;100005.56;5079790;28;20585;-80
2021/01/07 04:26:44;;;;;;;7.13;6.53;;;;;;;-0.38;91.31;100008.22;5079592;28;20705;-81
2021/01/07 04:29:10;;;;;;;8.10;7.40;;;;;;;-0.42;91.31;100013.31;5069803;28;20236;-79
2021/01/07 04:31:39;;;;;;;8.63;7.83;;;;;;;-0.37;91.06;100013.38;5078102;28;20207;-80
2021/01/07 04:34:05;;;;;;;9.07;8.17;;;;;;;-0.29;91.13;100010.97;5083119;28;20729;-81
2021/01/07 04:36:33;;;;;;;8.10;7.33;;;;;;;-0.27;91.27;100006.72;5084096;28;20200;-80
2021/01/07 04:38:58;;;;;;;8.67;7.87;;;;;;;-0.30;91.05;100004.94;5081714;28;20728;-80
2021/01/07 04:41:24;;;;;;;7.43;6.73;;;;;;;-0.25;90.87;100003.34;5076375;28;20246;-80
2021/01/07 04:43:55;;;;;;;7.97;7.27;;;;;;;-0.31;90.40;99998.09;5083002;28;20224;-81
2021/01/07 04:46:21;;;;;;;7.70;7.00;;;;;;;-0.20;90.27;100005.97;5067491;28;20206;-81
2021/01/07 04:48:48;;;;;;;6.73;6.13;;;;;;;-0.21;90.33;100001.69;5083339;28;20230;-79
2021/01/07 04:51:13;;;;;;;6.87;6.27;;;;;;;-0.27;90.16;100001.59;5059763;28;20204;-79
2021/01/07 04:53:40;;;;;;;7.43;6.77;;;;;;;-0.21;90.38;99997.41;5063086;28;20200;-80
2021/01/07 04:56:06;;;;;;;7.13;6.47;;;;;;;-0.28;90.64;100003.31;5065771;28;20208;-80
2021/01/07 04:58:32;;;;;;;7.23;6.53;;;;;;;-0.29;90.46;99993.88;5083093;28;20684;-79
2021/01/07 05:00:58;;;;;;;7.87;7.17;;;;;;;-0.23;90.10;99998.25;5073572;28;20227;-79
2021/01/07 05:03:24;;;;;;;6.97;6.33;;;;;;;-0.16;90.11;99997.50;5082538;28;20223;-79
2021/01/07 05:05:52;;;;;;;6.93;6.33;;;;;;;-0.08;89.94;99993.38;5074605;28;20208;-81
2021/01/07 05:08:18;;;;;;;6.80;5.80;;;;;;;-0.15;90.07;100000.94;5042972;28;20575;-80
2021/01/07 05:10:46;;;;;;;6.40;5.80;;;;;;;-0.18;90.34;99994.03;5066536;28;20233;-81
2021/01/07 05:13:13;;;;;;;6.77;6.17;;;;;;;-0.19;89.82;99994.88;5074673;28;20595;-81
2021/01/07 05:15:39;;;;;;;6.93;6.23;;;;;;;-0.17;90.00;99994.91;5082193;28;20204;-80
2021/01/07 05:18:05;;;;;;;7.67;6.97;;;;;;;-0.25;90.26;99992.22;5083559;28;20207;-79
2021/01/07 05:20:31;;;;;;;5.97;5.47;;;;;;;-0.28;90.62;99995.59;5073496;28;20224;-80
2021/01/07 05:22:59;;;;;;;7.57;6.87;;;;;;;-0.36;90.52;99994.56;5066843;28;20196;-78
2021/01/07 05:25:29;;;;;;;6.43;5.83;;;;;;;-0.33;90.65;99989.50;5067742;28;20213;-81
2021/01/07 05:27:58;;;;;;;6.20;5.70;;;;;;;-0.22;90.72;99990.59;5057464;28;20208;-80
2021/01/07 05:30:26;;;;;;;6.43;5.83;;;;;;;-0.24;90.57;99984.56;5065576;28;20290;-80
2021/01/07 05:32:58;;;;;;;8.20;7.50;;;;;;;-0.19;89.91;99987.19;5068469;28;20288;-81
2021/01/07 05:35:24;;;;;;;6.70;6.10;;;;;;;-0.24;89.83;99987.13;5062412;28;20292;-81
2021/01/07 05:37:50;;;;;;;6.93;6.33;;;;;;;-0.26;89.89;99991.38;5059488;28;20229;-81
2021/01/07 05:40:16;;;;;;;7.30;6.67;;;;;;;-0.24;90.18;99996.50;5068137;28;20231;-81
2021/01/07 05:42:43;;;;;;;7.30;6.70;;;;;;;-0.26;90.10;99991.38;5064288;28;20683;-80
2021/01/07 05:45:12;;;;;;;6.63;6.03;;;;;;;-0.11;90.38;99998.44;5058970;28;20228;-80
2021/01/07 05:47:40;;;;;;;6.93;6.17;;;;;;;-0.03;90.38;99991.75;5062972;28;20250;-81
2021/01/07 05:50:07;;;;;;;6.27;5.70;;;;;;;0.00;90.13;99990.94;5052857;28;20230;-80
2021/01/07 05:52:34;;;;;;;6.23;5.73;;;;;;;-0.05;89.18;99998.53;5050754;28;20207;-80
2021/01/07 05:55:00;;;;;;;7.17;6.33;;;;;;;0.01;89.91;99995.22;5054698;28;20198;-80
2021/01/07 05:57:28;;;;;;;7.00;6.40;;;;;;;-0.06;89.80;100001.97;5050741;28;20570;-80
2021/01/07 05:59:56;;;;;;;6.93;6.23;;;;;;;-0.09;90.37;99998.47;5057467;28;20594;-80
2021/01/07 06:02:23;;;;;;;7.37;6.77;;;;;;;-0.04;89.86;99997.72;5059700;28;20201;-80
2021/01/07 06:04:51;;;;;;;6.60;6.00;;;;;;;0.02;89.61;99996.97;5057006;28;20279;-80
2021/01/07 06:07:18;;;;;;;6.50;6.00;;;;;;;0.02;89.45;100002.09;5059163;28;20321;-80
2021/01/07 06:09:47;;;;;;;6.20;5.70;;;;;;;0.05;89.95;100003.84;5056927;28;20690;-81
2021/01/07 06:12:14;;;;;;;6.73;6.07;;;;;;;-0.04;89.51;99996.84;5057595;28;20205;-80
2021/01/07 06:14:41;;;;;;;6.13;5.63;;;;;;;-0.08;90.04;100002.75;5060573;28;20204;-81
2021/01/07 06:17:07;;;;;;;6.63;6.03;;;;;;;-0.12;90.04;100000.97;5062781;28;20626;-80
2021/01/07 06:19:37;;;;;;;6.63;6.00;;;;;;;-0.02;90.25;100001.19;5053825;28;20634;-80
2021/01/07 06:22:08;;;;;;;6.30;5.80;;;;;;;-0.16;90.23;100005.19;5057597;28;20198;-80
2021/01/07 06:24:36;;;;;;;6.23;5.63;;;;;;;-0.18;90.75;99999.16;5056048;28;20244;-80
2021/01/07 06:27:20;;;;;;;6.43;5.83;;;;;;;-0.03;90.82;99998.59;5058297;28;20289;-80
2021/01/07 06:29:46;;;;;;;6.00;5.40;;;;;;;-0.14;90.77;100003.53;5058051;28;20640;-80
2021/01/07 06:32:12;;;;;;;6.93;6.33;;;;;;;-0.12;90.93;100004.44;5060416;28;20291;-81
2021/01/07 06:34:39;;;;;;;8.07;5.77;;;;;;;0.04;90.27;100002.09;5059048;28;20646;-81
2021/01/07 06:37:06;;;;;;;6.07;5.57;;;;;;;0.15;90.54;100008.28;5063196;28;20312;-81
2021/01/07 06:39:41;;;;;;;6.30;5.80;;;;;;;0.14;89.49;100006.53;5063023;28;20262;-80
2021/01/07 06:42:07;;;;;;;5.80;5.30;;;;;;;0.23;89.78;100005.84;5066296;28;20349;-80
2021/01/07 06:44:33;;;;;;;5.93;5.43;;;;;;;0.31;89.25;99999.97;5063035;28;20270;-79
2021/01/07 06:46:59;;;;;;;6.70;5.40;;;;;;;0.32;89.65;99999.16;5060045;28;20205;-80
2021/01/07 06:49:27;;;;;;;6.70;6.10;;;;;;;0.28;88.98;99997.38;5060152;28;20312;-80
2021/01/07 06:51:59;;;;;;;5.27;4.87;;;;;;;0.34;88.63;100001.75;5051496;28;20669;-81
2021/01/07 06:54:29;;;;;;;4.97;4.57;;;;;;;0.37;89.47;100005.19;5059100;28;20193;-80
2021/01/07 06:56:55;;;;;;;5.80;5.30;;;;;;;0.44;88.27;100002.72;5048971;28;20566;-80
2021/01/07 06:59:22;;;;;;;5.87;5.33;;;;;;;0.49;88.31;100001.94;5056570;28;20634;-80
2021/01/07 07:01:51;;;;;;;5.77;5.27;;;;;;;0.42;87.92;100004.41;5056613;28;20292;-80
2021/01/07 07:04:25;;;;;;;5.40;4.90;;;;;;;0.36;87.83;100006.06;5056946;28;20220;-80
2021/01/07 07:06:58;;;;;;;6.03;5.43;;;;;;;0.43;88.39;100008.72;5058146;28;20298;-81
2021/01/07 07:09:25;;;;;;;6.83;6.23;;;;;;;0.53;87.99;100014.00;5059667;28;20287;-80
2021/01/07 07:11:55;;;;;;;6.13;5.53;;;;;;;0.54;87.86;100014.88;5069031;28;20208;-81
2021/01/07 07:14:22;;;;;;;5.83;5.33;;;;;;;0.54;88.23;100018.31;5058450;28;20193;-80
2021/01/07 07:16:49;;;;;;;6.20;5.73;;;;;;;0.54;87.81;100026.00;5067387;28;20211;-80
2021/01/07 07:19:26;;;;;;;6.10;5.60;;;;;;;0.58;87.65;100021.78;5065206;28;20236;-79
2021/01/07 07:21:57;;;;;;;6.50;4.70;;;;;;;0.61;88.23;100024.38;5060328;28;20205;-80
2021/01/07 07:24:32;;;;;;;5.83;5.33;;;;;;;0.65;87.67;100020.16;5063314;28;20277;-79
2021/01/07 07:27:02;;;;;;;6.37;5.80;;;;;;;0.71;87.61;100027.94;5082174;28;20203;-79
2021/01/07 07:29:32;;;;;;;6.47;5.90;;;;;;;0.72;87.39;100029.69;5074317;28;20761;-80
2021/01/07 07:31:58;;;;;;;6.27;5.67;;;;;;;0.59;87.61;100024.38;5078182;28;20211;-79
2021/01/07 07:34:29;;;;;;;6.00;5.50;;;;;;;0.53;87.48;100026.84;5085565;28;20246;-80
2021/01/07 07:36:55;;;;;;;6.50;5.70;;;;;;;0.52;87.43;100024.28;5087455;28;20217;-79
2021/01/07 07:39:25;;;;;;;6.00;5.50;;;;;;;0.61;87.63;100031.22;5087971;28;20235;-80
2021/01/07 07:42:09;;;;;;;6.40;5.90;;;;;;;0.47;87.82;100036.16;5089552;28;20394;-80
2021/01/07 07:44:35;;;;;;;6.60;6.03;;;;;;;0.53;88.65;100031.97;5082899;28;20292;-79
2021/01/07 07:47:01;;;;;;;7.40;6.27;;;;;;;0.60;87.84;100032.94;5069138;28;20211;-79
2021/01/07 07:49:27;;;;;;;6.87;6.37;;;;;;;0.74;87.94;100033.16;5053650;28;20228;-80
2021/01/07 07:51:53;;;;;;;6.20;5.70;;;;;;;0.76;88.03;100037.47;5084541;28;20207;-79
2021/01/07 07:54:19;;;;;;;8.03;7.20;;;;;;;0.73;87.49;100046.81;5078080;28;20223;-79
2021/01/07 07:56:44;;;;;;;7.37;6.67;;;;;;;0.57;88.05;100035.47;5075260;28;20197;-79
2021/01/07 07:59:12;;;;;;;7.27;6.60;;;;;;;0.59;88.43;100044.03;5073886;28;21161;-78
2021/01/07 08:01:42;;;;;;;7.30;6.60;;;;;;;0.52;88.33;100045.66;5061833;28;20197;-79
2021/01/07 08:04:13;;;;;;;7.20;5.87;;;;;;;0.58;88.43;100040.63;5072489;28;20233;-79
2021/01/07 08:06:39;;;;;;;7.17;6.57;;;;;;;0.54;87.74;100048.25;5049901;28;20220;-79
2021/01/07 08:09:06;;;;;;;7.23;6.63;;;;;;;0.54;88.51;100044.00;5071134;28;20593;-80
2021/01/07 08:11:39;;;;;;;7.00;6.40;;;;;;;0.68;88.35;100051.03;5070754;28;20208;-79
2021/01/07 08:14:08;;;;;;;6.70;6.10;;;;;;;0.73;87.90;100050.28;5079268;28;20218;-78
2021/01/07 08:16:36;;;;;;;6.30;5.80;;;;;;;0.73;87.90;100059.66;5084967;28;20197;-78
2021/01/07 08:19:01;;;;;;;6.37;5.87;;;;;;;0.73;88.42;100054.53;5077136;28;20256;-78
2021/01/07 08:21:27;;;;;;;7.67;6.97;;;;;;;0.78;88.19;100058.03;5071826;28;20209;-79
2021/01/07 08:23:53;;;;;;;6.70;6.13;;;;;;;0.70;88.14;100052.78;5075669;28;20236;-77
2021/01/07 08:26:27;;;;;;;6.33;5.83;;;;;;;0.68;88.17;100051.91;5079404;28;20213;-78
2021/01/07 08:28:53;;;;;;;6.83;6.20;;;;;;;0.56;88.37;100052.56;5095173;28;20287;-77
2021/01/07 08:31:22;;;;;;;7.40;6.77;;;;;;;0.60;88.31;100053.50;5080740;28;20311;-78
2021/01/07 08:33:50;;;;;;;6.93;6.33;;;;;;;0.71;87.61;100057.06;5078662;28;20208;-78
2021/01/07 08:36:20;;;;;;;6.70;6.10;;;;;;;0.73;87.58;100051.94;5080077;28;20223;-78
2021/01/07 08:38:49;;;;;;;6.17;5.63;;;;;;;0.76;87.88;100046.88;5095894;28;20209;-78
2021/01/07 08:41:17;;;;;;;6.40;5.80;;;;;;;0.82;88.15;100053.81;5079216;28;20223;-79
2021/01/07 08:43:44;;;;;;;7.10;6.50;;;;;;;0.82;87.65;100046.09;5091514;28;20220;-79
2021/01/07 08:46:12;;;;;;;8.67;7.27;;;;;;;0.87;87.62;100044.44;5061973;28;20234;-79
2021/01/07 08:48:37;;;;;;;7.27;6.57;;;;;;;0.84;87.56;100042.72;5080308;28;20246;-79
2021/01/07 08:51:19;;;;;;;7.07;6.47;;;;;;;0.76;86.96;100044.31;5055028;28;20631;-79
2021/01/07 08:53:49;;;;;;;7.73;7.00;;;;;;;0.64;87.53;100042.41;5054210;28;20205;-79
2021/01/07 08:56:31;;;;;;;8.00;7.40;;;;;;;0.50;87.66;100042.22;5054038;28;20208;-79
2021/01/07 08:59:25;;;;;;;7.83;7.23;;;;;;;0.48;88.13;100036.19;5054733;28;20225;-79
2021/01/07 09:01:52;;;;;;;7.17;6.57;;;;;;;0.48;88.26;100037.91;5054343;28;20733;-81
2021/01/07 09:04:32;;;;;;;7.43;6.83;;;;;;;0.56;87.82;100044.88;5056216;28;20228;-81
2021/01/07 09:07:01;;;;;;;7.40;6.77;;;;;;;0.52;87.63;100043.09;5055275;28;20201;-80
2021/01/07 09:09:36;;;;;;;7.10;6.50;;;;;;;0.40;87.84;100042.91;5054803;28;20228;-81
2021/01/07 09:12:14;;;;;;;6.83;6.33;;;;;;;0.32;88.09;100039.38;5054218;28;20227;-80
2021/01/07 09:14:45;;;;;;;7.47;6.87;;;;;;;0.43;88.30;100047.22;5054421;28;20209;-80
2021/01/07 09:17:11;;;;;;;7.93;7.23;;;;;;;0.52;87.96;100044.81;5056698;28;20208;-79
2021/01/07 09:19:37;;;;;;;7.10;6.20;;;;;;;0.58;88.25;100040.63;5056214;28;20590;-79
2021/01/07 09:22:03;;;;;;;6.63;6.03;;;;;;;0.69;87.52;100047.63;5056643;28;20791;-81
2021/01/07 09:24:34;;;;;;;7.33;6.77;;;;;;;0.71;87.80;100053.63;5054491;28;20224;-80
2021/01/07 09:27:07;;;;;;;7.83;7.13;;;;;;;0.65;87.62;100045.84;5055950;28;20208;-80
2021/01/07 09:29:33;;;;;;;6.83;6.30;;;;;;;0.64;87.48;100042.41;5054753;28;20232;-79
2021/01/07 09:31:59;;;;;;;7.73;7.13;;;;;;;0.74;87.13;100040.84;5054145;28;20196;-79
2021/01/07 09:34:25;;;;;;;7.17;6.60;;;;;;;0.63;87.57;100042.38;5054547;28;20287;-79
2021/01/07 09:36:51;;;;;;;7.50;6.80;;;;;;;0.56;87.70;100046.59;5052263;28;20201;-79
2021/01/07 09:39:18;;;;;;;7.47;6.77;;;;;;;0.57;87.65;100050.88;5054013;28;20274;-80
2021/01/07 09:41:44;;;;;;;6.93;6.33;;;;;;;0.44;87.09;100044.69;5056608;28;20662;-79
2021/01/07 09:44:10;;;;;;;7.10;6.50;;;;;;;0.42;87.08;100056.63;5055536;28;20232;-80
2021/01/07 09:46:35;;;;;;;6.90;6.23;;;;;;;0.49;87.75;100053.31;5055419;28;20204;-79
2021/01/07 09:49:01;;;;;;;6.00;5.50;;;;;;;0.50;87.53;100051.63;5054228;28;20713;-79
2021/01/07 09:51:27;;;;;;;6.40;5.90;;;;;;;0.41;87.18;100052.31;5051770;28;20226;-79
2021/01/07 09:53:53;;;;;;;6.33;5.83;;;;;;;0.41;87.43;100052.31;5054719;28;20271;-81
2021/01/07 09:56:19;;;;;;;6.03;5.53;;;;;;;0.42;87.43;100051.50;5055683;28;20601;-81
2021/01/07 09:58:45;;;;;;;6.37;5.87;;;;;;;0.56;87.65;100050.00;5056238;28;20682;-81
2021/01/07 10:01:11;;;;;;;6.87;6.30;;;;;;;0.65;87.33;100046.69;5056115;28;20697;-81
2021/01/07 10:03:37;;;;;;;6.80;6.20;;;;;;;0.66;86.54;100050.16;5057138;28;20223;-81
2021/01/07 10:06:05;;;;;;;7.50;6.87;;;;;;;0.79;87.16;100052.94;5056263;28;20608;-81
2021/01/07 10:08:31;;;;;;;6.30;5.80;;;;;;;0.97;86.79;100051.44;5054984;28;20193;-80
2021/01/07 10:10:57;;;;;;;6.30;5.70;;;;;;;1.07;86.19;100045.59;5052568;28;20305;-80
2021/01/07 10:13:23;;;;;;;5.37;4.97;;;;;;;1.07;86.51;100045.59;5054054;28;20221;-80
2021/01/07 10:15:49;;;;;;;5.20;4.80;;;;;;;1.24;86.41;100044.94;5052774;28;20205;-80
2021/01/07 10:18:15;;;;;;;5.83;5.33;;;;;;;1.37;86.08;100046.81;5053543;28;20207;-80
2021/01/07 10:20:41;;;;;;;5.67;5.23;;;;;;;1.46;85.35;100046.91;5052563;28;20264;-80
2021/01/07 10:23:11;;;;;;;6.10;5.60;;;;;;;1.57;85.17;100040.19;5052078;28;20204;-80
2021/01/07 10:25:38;;;;;;;6.03;5.53;;;;;;;1.65;85.07;100039.44;5052646;28;20225;-79
2021/01/07 10:28:06;;;;;;;6.73;6.23;;;;;;;1.67;83.96;100040.31;5053887;28;20280;-79
2021/01/07 10:30:33;;;;;;;6.63;6.13;;;;;;;1.63;84.23;100039.41;5051442;28;20591;-80
2021/01/07 10:32:58;;;;;;;6.77;6.27;;;;;;;1.45;84.44;100034.91;5048453;28;20667;-79
2021/01/07 10:35:25;;;;;;;7.63;6.47;;;;;;;1.46;84.17;100031.47;5048190;28;20209;-79
2021/01/07 10:37:58;;;;;;;6.57;6.03;;;;;;;1.39;84.32;100034.84;5053697;28;20204;-80
2021/01/07 10:40:25;;;;;;;6.30;5.70;;;;;;;1.49;84.15;100036.69;5051093;28;20648;-81
2021/01/07 10:42:51;;;;;;;6.07;5.57;;;;;;;1.48;83.63;100032.38;5054694;28;20243;-79
2021/01/07 10:45:18;;;;;;;5.80;5.33;;;;;;;1.50;84.14;100027.25;5056750;28;20217;-81
2021/01/07 10:47:45;;;;;;;6.77;6.27;;;;;;;1.52;84.26;100034.13;5051303;28;20204;-81
2021/01/07 10:50:14;;;;;;;14.80;12.97;;;;;;;1.31;83.82;100028.72;5057047;28;20308;-81
2021/01/07 10:52:57;;;;;;;7.70;7.00;;;;;;;1.31;84.16;100028.72;5057425;28;20212;-80
2021/01/07 10:55:26;;;;;;;8.70;7.90;;;;;;;0.85;84.90;100015.31;5065382;28;20201;-79
2021/01/07 10:58:25;;;;;;;6.93;6.33;;;;;;;1.02;85.70;100024.09;5058773;28;20212;-79
2021/01/07 11:01:02;;;;;;;6.77;6.27;;;;;;;0.90;85.25;100013.66;5054106;28;20225;-79
2021/01/07 11:03:59;;;;;;;13.57;12.27;;;;;;;0.91;84.72;100016.25;5055955;28;20284;-79
2021/01/07 11:06:30;;;;;;;8.80;8.00;;;;;;;0.81;85.35;100019.53;5043049;28;20201;-79
2021/01/07 11:09:01;;;;;;;5.70;5.20;;;;;;;0.65;84.70;100009.88;5056661;28;20267;-80
2021/01/07 11:11:31;;;;;;;5.07;4.17;;;;;;;0.76;84.63;100016.06;5056906;28;20669;-79
2021/01/07 11:14:02;;;;;;;4.87;4.47;;;;;;;0.74;85.29;100012.59;5040925;28;20197;-78
2021/01/07 11:16:37;;;;;;;7.43;6.83;;;;;;;0.74;84.90;100016.03;5051445;28;20201;-79
2021/01/07 11:19:08;;;;;;;4.77;4.40;;;;;;;0.88;84.93;100010.22;5070503;28;20231;-79
2021/01/07 11:21:39;;;;;;;4.43;4.03;;;;;;;0.88;85.09;100012.78;5057133;28;20208;-81
2021/01/07 11:24:06;;;;;;;5.80;5.30;;;;;;;0.80;84.75;100002.41;5055665;28;20221;-79
2021/01/07 11:26:32;;;;;;;6.03;5.53;;;;;;;0.76;84.45;100001.50;5064271;28;20227;-84
2021/01/07 11:28:59;;;;;;;5.67;5.27;;;;;;;0.60;85.08;99994.44;5076522;28;20220;-83
2021/01/07 11:31:25;;;;;;;5.03;4.63;;;;;;;0.58;85.46;99996.97;5069584;28;20219;-81